Flight Track Log - Related Links

Times and Time Zones

All times are in EDT time to prevent confusion due to time zone crossing. See the UPS104 flight status page for this flight to view local times or setup timezone preferences in your user account.

Time Position Orientation Groundspeed Altitude Reporting Facility
EDT Latitude Longitude Course Direction KTS MPH feet Rate Location/Type
Sat 03:03:02 AM 42.2020 -89.0860 65° Northeast 162 186 1,700  Level FlightAware ADS-B
Sat 03:03:19 AM 42.2080 -89.0740 56° Northeast 165 190 2,400 2,286 Climbing FlightAware ADS-B
Sat 03:03:23 AM 42.2120 -89.0710 29° Northeast 176 203 2,500 857 Climbing FlightAware ADS-B
Sat 03:03:33 AM 42.2190 -89.0680 18° North 198 228 2,600 923 Climbing FlightAware ADS-B
Sat 03:03:36 AM 42.2240 -89.0670 North 206 237 2,700 1,714 Climbing FlightAware ADS-B
Sat 03:04:01 AM 42.2470 -89.0770 342° North 233 268 3,400 1,826 Climbing FlightAware ADS-B
Sat 03:04:22 AM 42.2620 -89.1040 307° West 238 274 4,100 1,756 Climbing FlightAware ADS-B
Sat 03:04:42 AM 42.2700 -89.1310 292° West 255 293 4,600 1,800 Climbing FlightAware ADS-B
Sat 03:05:02 AM 42.2800 -89.1620 294° West 268 308 5,300 2,250 Climbing FlightAware ADS-B
Sat 03:05:14 AM 42.2840 -89.1770 290° West 265 305 5,800 2,914 Climbing FlightAware ADS-B
Sat 03:05:37 AM 42.2940 -89.2150 290° West 262 302 7,000 2,923 Climbing FlightAware ADS-B
Sat 03:05:53 AM 42.3010 -89.2400 291° West 263 303 7,700 2,438 Climbing FlightAware ADS-B
Sat 03:06:09 AM 42.3070 -89.2640 289° West 266 306 8,300 2,488 Climbing FlightAware ADS-B
Sat 03:06:34 AM 42.3190 -89.3050 292° West 270 311 9,400 2,400 Climbing FlightAware ADS-B
Sat 03:06:44 AM 42.3240 -89.3160 302° West 273 314 9,700 1,714 Climbing FlightAware ADS-B
Sat 03:07:23 AM 42.3610 -89.3670 314° West 301 346 10,800 1,459 Climbing FlightAware ADS-B
Sat 03:07:58 AM 42.4000 -89.4170 317° Northwest 338 389 11,500 1,273 Climbing FlightAware ADS-B
Sat 03:08:29 AM 42.4360 -89.4630 317° Northwest 371 427 12,200 2,029 Climbing FlightAware ADS-B
Sat 03:09:06 AM 42.4840 -89.5260 316° Northwest 386 444 13,800 2,560 Climbing FlightAware ADS-B
Sat 03:09:44 AM 42.5330 -89.5900 316° Northwest 397 457 15,400 2,647 Climbing FlightAware ADS-B
Sat 03:10:14 AM 42.5730 -89.6430 316° Northwest 406 467 16,800 2,571 Climbing FlightAware ADS-B
Sat 03:10:54 AM 42.6280 -89.7150 316° Northwest 419 482 18,400 2,027 Climbing FlightAware ADS-B
Sat 03:11:28 AM 42.6590 -89.7560 316° Northwest 425 489 19,300 2,206 Climbing FlightAware ADS-B
Sat 03:12:02 AM 42.7220 -89.8390 316° Northwest 439 505 20,900 2,583 Climbing FlightAware ADS-B
Sat 03:12:40 AM 42.7780 -89.9140 316° Northwest 445 512 22,400 2,743 Climbing FlightAware ADS-B
Sat 03:13:12 AM 42.8280 -89.9790 316° Northwest 440 506 24,100 2,301 Climbing FlightAware ADS-B
Sat 03:13:53 AM 42.8820 -90.0530 315° West 450 518 25,200 1,823 Climbing FlightAware ADS-B
Sat 03:14:31 AM 42.9430 -90.1350 315° West 456 525 26,500 1,859 Climbing FlightAware ADS-B
Sat 03:15:04 AM 42.9940 -90.2030 316° Northwest 463 533 27,400 1,565 Climbing FlightAware ADS-B
Sat 03:15:40 AM 43.0490 -90.2760 316° Northwest 470 541 28,300 1,391 Climbing FlightAware ADS-B
Sat 03:16:13 AM 43.0990 -90.3450 315° West 477 549 29,000 1,273 Climbing FlightAware ADS-B
Sat 03:16:46 AM 43.1500 -90.4140 315° West 482 555 29,700 1,629 Climbing FlightAware ADS-B
Sat 03:17:23 AM 43.2070 -90.4910 315° West 478 550 30,900 1,971 Climbing FlightAware ADS-B
Sat 03:17:56 AM 43.2610 -90.5640 315° West 475 547 32,000 1,853 Climbing FlightAware ADS-B
Sat 03:18:31 AM 43.3130 -90.6350 315° West 468 539 33,000 1,714 Climbing FlightAware ADS-B
Sat 03:19:06 AM 43.3700 -90.7130 315° West 454 522 34,000 822 Climbing FlightAware ADS-B
Sat 03:19:44 AM 43.4250 -90.7890 315° West 448 516 34,000  Level FlightAware ADS-B
Sat 03:20:20 AM 43.4750 -90.8650 312° West 451 519 34,000  Level FlightAware ADS-B
Sat 03:21:02 AM 43.5340 -90.9570 312° West 457 526 34,000  Level FlightAware ADS-B
Sat 03:21:37 AM 43.5820 -91.0320 311° West 458 527 34,000  Level FlightAware ADS-B
Sat 03:22:11 AM 43.6280 -91.1020 312° West 457 526 34,000  Level FlightAware ADS-B
Sat 03:22:46 AM 43.6790 -91.1810 312° West 457 526 34,000  Level FlightAware ADS-B
Sat 03:23:22 AM 43.7290 -91.2590 312° West 456 525 34,000  Level FlightAware ADS-B
Sat 03:24:02 AM 43.7870 -91.3480 312° West 456 525 34,000  Level FlightAware ADS-B
Sat 03:24:39 AM 43.8390 -91.4290 312° West 456 525 34,000  Level FlightAware ADS-B
Sat 03:25:15 AM 43.8880 -91.5060 311° West 454 522 34,000  Level FlightAware ADS-B
Sat 03:25:47 AM 43.9330 -91.5770 311° West 452 520 34,000  Level FlightAware ADS-B
Sat 03:26:21 AM 43.9800 -91.6500 312° West 450 518 34,000  Level FlightAware ADS-B
Sat 03:26:59 AM 44.0330 -91.7340 311° West 449 517 34,000  Level FlightAware ADS-B
Sat 03:27:37 AM 44.0840 -91.8140 312° West 445 512 34,000  Level FlightAware ADS-B
Sat 03:28:09 AM 44.1270 -91.8820 311° West 440 506 34,000  Level FlightAware ADS-B
Sat 03:28:45 AM 44.1750 -91.9590 311° West 438 504 34,000  Level FlightAware ADS-B
Sat 03:29:21 AM 44.2230 -92.0350 311° West 438 504 34,000  Level FlightAware ADS-B
Sat 03:29:53 AM 44.2660 -92.1040 311° West 438 504 34,000  Level FlightAware ADS-B
Sat 03:30:31 AM 44.3170 -92.1850 311° West 439 505 34,000  Level FlightAware ADS-B
Sat 03:31:06 AM 44.3610 -92.2570 311° West 440 506 34,000  Level FlightAware ADS-B
Sat 03:31:39 AM 44.4070 -92.3310 311° West 444 511 34,000  Level FlightAware ADS-B
Sat 03:32:13 AM 44.4520 -92.4030 311° West 448 516 34,000  Level FlightAware ADS-B
Sat 03:32:49 AM 44.5020 -92.4840 311° West 450 518 34,000  Level FlightAware ADS-B
Sat 03:33:21 AM 44.5450 -92.5540 311° West 450 518 34,000  Level FlightAware ADS-B
Sat 03:34:03 AM 44.6020 -92.6470 311° West 450 518 34,000  Level FlightAware ADS-B
Sat 03:34:35 AM 44.6450 -92.7170 311° West 450 518 34,000  Level FlightAware ADS-B
Sat 03:35:05 AM 44.6850 -92.7820 311° West 450 518 34,000  Level FlightAware ADS-B
Sat 03:35:45 AM 44.7400 -92.8730 310° West 449 517 34,000  Level FlightAware ADS-B
Sat 03:36:15 AM 44.7810 -92.9400 311° West 450 518 34,000  Level FlightAware ADS-B
Sat 03:36:53 AM 44.8320 -93.0240 311° West 449 517 34,000  Level FlightAware ADS-B
Sat 03:37:31 AM 44.8830 -93.1080 311° West 451 519 34,000  Level FlightAware ADS-B
Sat 03:38:06 AM 44.9230 -93.1750 310° West 451 519 34,000  Level FlightAware ADS-B
Sat 03:38:40 AM 44.9750 -93.2600 311° West 452 520 34,000  Level FlightAware ADS-B
Sat 03:39:16 AM 45.0240 -93.3440 310° West 452 520 34,000  Level FlightAware ADS-B
Sat 03:39:52 AM 45.0740 -93.4260 311° West 450 518 34,000  Level FlightAware ADS-B
Sat 03:40:44 AM 45.1440 -93.5440 310° West 447 514 34,000  Level FlightAware ADS-B
Sat 03:41:23 AM 45.1940 -93.6290 310° West 445 512 34,000  Level FlightAware ADS-B
Sat 03:41:55 AM 45.2370 -93.7000 311° West 442 509 34,000  Level FlightAware ADS-B
Sat 03:42:31 AM 45.2840 -93.7810 310° West 441 507 34,000  Level FlightAware ADS-B
Sat 03:43:05 AM 45.3280 -93.8560 310° West 440 506 34,000  Level FlightAware ADS-B
Sat 03:43:42 AM 45.3750 -93.9360 310° West 440 506 34,000  Level FlightAware ADS-B
Sat 03:44:17 AM 45.4220 -94.0150 310° West 441 507 34,000  Level FlightAware ADS-B
Sat 03:44:53 AM 45.4690 -94.0960 310° West 441 507 34,000  Level FlightAware ADS-B
Sat 03:45:27 AM 45.5140 -94.1730 310° West 441 507 34,000  Level FlightAware ADS-B
Sat 03:46:01 AM 45.5570 -94.2480 309° West 441 507 34,000  Level FlightAware ADS-B
Sat 03:46:37 AM 45.6040 -94.3290 310° West 441 507 34,000  Level FlightAware ADS-B
Sat 03:47:11 AM 45.6490 -94.4060 310° West 440 506 34,000  Level FlightAware ADS-B
Sat 03:47:46 AM 45.6930 -94.4830 309° West 439 505 34,000  Level FlightAware ADS-B
Sat 03:48:21 AM 45.7360 -94.5590 309° West 439 505 34,000  Level FlightAware ADS-B
Sat 03:48:58 AM 45.7860 -94.6460 310° West 439 505 34,000  Level FlightAware ADS-B
Sat 03:49:30 AM 45.8260 -94.7170 309° West 439 505 34,000  Level FlightAware ADS-B
Sat 03:50:04 AM 45.8710 -94.7940 310° West 439 505 34,000  Level FlightAware ADS-B
Sat 03:50:41 AM 45.9160 -94.8750 309° West 439 505 34,000  Level FlightAware ADS-B
Sat 03:51:18 AM 45.9630 -94.9570 310° West 440 506 34,000  Level FlightAware ADS-B
Sat 03:51:49 AM 46.0060 -95.0330 309° West 441 507 34,000  Level FlightAware ADS-B
Sat 03:52:28 AM 46.0550 -95.1210 309° West 440 506 34,000  Level FlightAware ADS-B
Sat 03:53:04 AM 46.1010 -95.2020 309° West 441 507 34,000  Level FlightAware ADS-B
Sat 03:53:34 AM 46.1340 -95.2620 308° West 441 507 34,000  Level FlightAware ADS-B
Sat 03:54:12 AM 46.1880 -95.3590 309° West 443 510 34,000  Level FlightAware ADS-B
Sat 03:54:47 AM 46.2330 -95.4400 309° West 444 511 34,000  Level FlightAware ADS-B
Sat 03:55:24 AM 46.2800 -95.5230 309° West 446 513 34,000  Level FlightAware ADS-B
Sat 03:55:56 AM 46.3220 -95.5990 309° West 445 512 34,000  Level FlightAware ADS-B
Sat 03:56:32 AM 46.3670 -95.6800 309° West 444 511 34,000  Level FlightAware ADS-B
Sat 03:57:08 AM 46.4130 -95.7660 308° West 443 510 34,000  Level FlightAware ADS-B
Sat 03:57:38 AM 46.4510 -95.8350 309° West 442 509 34,000  Level FlightAware ADS-B
Sat 03:58:16 AM 46.5010 -95.9250 309° West 444 511 34,000  Level FlightAware ADS-B
Sat 03:58:53 AM 46.5480 -96.0120 308° West 445 512 34,000  Level FlightAware ADS-B
Sat 03:59:27 AM 46.5910 -96.0920 308° West 445 512 34,000  Level FlightAware ADS-B
Sat 04:00:02 AM 46.6340 -96.1710 308° West 445 512 34,000  Level FlightAware ADS-B
Sat 04:00:34 AM 46.6760 -96.2480 309° West 444 511 34,000  Level FlightAware ADS-B
Sat 04:01:13 AM 46.7250 -96.3400 308° West 444 511 34,000  Level FlightAware ADS-B
Sat 04:01:46 AM 46.7670 -96.4170 309° West 442 509 34,000  Level FlightAware ADS-B
Sat 04:02:30 AM 46.8140 -96.5050 308° West 442 509 34,000  Level FlightAware ADS-B
Sat 04:03:02 AM 46.8600 -96.5910 308° West 440 506 34,000  Level FlightAware ADS-B
Sat 04:03:41 AM 46.9090 -96.6840 308° West 440 506 34,000  Level FlightAware ADS-B
Sat 04:04:12 AM 46.9480 -96.7570 308° West 440 506 34,000  Level FlightAware ADS-B
Sat 04:04:45 AM 46.9890 -96.8350 308° West 440 506 34,000  Level FlightAware ADS-B
Sat 04:05:24 AM 47.0370 -96.9260 308° West 441 507 34,000  Level FlightAware ADS-B
Sat 04:06:00 AM 47.0830 -97.0140 308° West 442 509 34,000  Level FlightAware ADS-B
Sat 04:06:28 AM 47.1150 -97.0750 308° West 442 509 34,000  Level FlightAware ADS-B
Sat 04:07:07 AM 47.1640 -97.1680 308° West 441 507 34,000  Level FlightAware ADS-B
Sat 04:07:47 AM 47.2050 -97.2490 307° West 441 507 34,000  Level FlightAware ADS-B
Sat 04:08:24 AM 47.2440 -97.3250 307° West 441 507 34,000  Level FlightAware ADS-B
Sat 04:08:59 AM 47.2810 -97.3960 308° West 441 507 34,000  Level FlightAware ADS-B
Sat 04:09:35 AM 47.3180 -97.4700 306° West 441 507 34,000  Level FlightAware ADS-B
Sat 04:10:10 AM 47.3550 -97.5410 308° West 441 507 34,000  Level FlightAware ADS-B
Sat 04:10:48 AM 47.3940 -97.6190 306° West 441 507 34,000  Level FlightAware ADS-B
Sat 04:11:01 AM 47.4080 -97.6460 307° West 441 507 34,000  Level FlightAware ADS-B
Sat 04:11:59 AM 47.4680 -97.7640 307° West 441 507 34,000  Level FlightAware ADS-B
Sat 04:12:35 AM 47.5060 -97.8380 307° West 441 507 34,000  Level FlightAware ADS-B
Sat 04:13:11 AM 47.5440 -97.9120 307° West 441 507 34,000  Level FlightAware ADS-B
Sat 04:13:47 AM 47.5810 -97.9860 307° West 441 507 34,000  Level FlightAware ADS-B
Sat 04:14:31 AM 47.6270 -98.0760 307° West 441 507 34,000  Level FlightAware ADS-B
Sat 04:15:07 AM 47.6650 -98.1500 307° West 441 507 34,000  Level FlightAware ADS-B
Sat 04:15:46 AM 47.7050 -98.2310 306° West 441 507 34,000  Level FlightAware ADS-B
Sat 04:16:26 AM 47.7470 -98.3130 307° West 441 507 34,000  Level FlightAware ADS-B
Sat 04:17:04 AM 47.7870 -98.3910 307° West 441 507 34,000  Level FlightAware ADS-B
Sat 04:17:35 AM 47.9000 -98.6667 307° West 430 495 34,000  Level Winnipeg Center
Sat 04:22:49 AM 48.2870 -99.4110 307° West 426 490 34,000  Level FlightAware ADS-B
Sat 04:23:26 AM 48.3320 -99.5040 306° West 425 489 34,000  Level FlightAware ADS-B
Sat 04:24:10 AM 48.3820 -99.6090 306° West 425 489 34,000  Level FlightAware ADS-B
Sat 04:24:50 AM 48.4280 -99.7050 306° West 425 489 34,000  Level FlightAware ADS-B
Sat 04:25:24 AM 48.4670 -99.7880 305° West 425 489 34,000  Level FlightAware ADS-B
Sat 04:25:57 AM 48.5020 -99.8630 305° West 425 489 34,000  Level FlightAware ADS-B
Sat 04:26:32 AM 48.5430 -99.9490 306° West 425 489 34,000  Level FlightAware ADS-B
Sat 04:27:10 AM 48.5870 -100.0420 306° West 425 489 34,000  Level FlightAware ADS-B
Sat 04:28:01 AM 48.6370 -100.1490 305° West 424 488 34,000  Level FlightAware ADS-B
Sat 04:28:32 AM 48.6790 -100.2390 305° West 425 489 34,000  Level FlightAware ADS-B
Sat 04:29:22 AM 48.7300 -100.3500 305° West 426 490 34,000  Level FlightAware ADS-B
Sat 04:29:50 AM 48.7690 -100.4320 306° West 425 489 34,000  Level FlightAware ADS-B
Sat 04:30:20 AM 48.8030 -100.5060 305° West 425 489 34,000  Level FlightAware ADS-B
Sat 04:30:58 AM 48.8450 -100.5980 305° West 425 489 34,000  Level FlightAware ADS-B
Sat 04:31:35 AM 48.8860 -100.6870 305° West 426 490 34,000  Level FlightAware ADS-B
Sat 04:32:06 AM 48.9200 -100.7610 305° West 426 490 34,000  Level FlightAware ADS-B
Sat 04:32:46 AM 48.9660 -100.8610 305° West 426 490 34,000  Level FlightAware ADS-B
Sat 04:33:17 AM 49.0000 -100.9360 305° West 426 490 34,000  Level FlightAware ADS-B
Sat 04:33:54 AM 49.0410 -101.0280 304° West 426 490 34,000  Level FlightAware ADS-B
Sat 04:34:24 AM 49.0740 -101.1010 305° West 427 491 34,000  Level FlightAware ADS-B
Sat 04:35:14 AM 49.1230 -101.2110 304° West 427 491 34,000  Level FlightAware ADS-B
Sat 04:35:47 AM 49.1680 -101.3090 305° West 428 493 34,000  Level FlightAware ADS-B
Sat 04:36:26 AM 49.2110 -101.4060 304° West 427 491 34,000  Level FlightAware ADS-B
Sat 04:37:05 AM 49.2480 -101.4890 304° West 427 491 34,000  Level FlightAware ADS-B
Sat 04:37:56 AM 49.3110 -101.6320 304° West 426 490 34,000  Level FlightAware ADS-B
Sat 04:38:30 AM 49.3480 -101.7160 304° West 427 491 34,000  Level FlightAware ADS-B
Sat 04:39:00 AM 49.3820 -101.7910 305° West 426 490 34,000  Level FlightAware ADS-B
Sat 04:39:38 AM 49.4240 -101.8880 304° West 425 489 34,000  Level FlightAware ADS-B
Sat 04:40:34 AM 49.4800 -102.0190 303° West 425 489 34,000  Level FlightAware ADS-B
Sat 04:41:11 AM 49.5140 -102.0980 304° West 425 489 34,000  Level FlightAware ADS-B
Sat 04:41:47 AM 49.5470 -102.1760 303° West 425 489 34,000  Level FlightAware ADS-B
Sat 04:42:23 AM 49.5800 -102.2540 303° West 425 489 34,000  Level FlightAware ADS-B
Sat 04:43:01 AM 49.6140 -102.3360 303° West 425 489 34,000  Level FlightAware ADS-B
Sat 04:43:37 AM 49.6470 -102.4140 303° West 425 489 34,000  Level FlightAware ADS-B
Sat 04:44:14 AM 49.6810 -102.4940 303° West 425 489 34,000  Level FlightAware ADS-B
Sat 04:44:50 AM 49.7130 -102.5720 302° West 425 489 34,000  Level FlightAware ADS-B
Sat 04:45:27 AM 49.7470 -102.6530 303° West 425 489 34,000  Level FlightAware ADS-B
Sat 04:46:06 AM 49.7820 -102.7370 303° West 425 489 34,000  Level FlightAware ADS-B
Sat 04:46:44 AM 49.8170 -102.8200 303° West 425 489 34,000  Level FlightAware ADS-B
Sat 04:47:21 AM 49.8510 -102.9000 303° West 425 489 34,000  Level FlightAware ADS-B
Sat 04:47:56 AM 49.9530 -103.1250 305° West 34,000  Level FlightAware ADS-B
Sat 04:48:32 AM 49.9900 -103.2110 304° West 420 483 34,000  Level FlightAware ADS-B
Sat 04:49:03 AM 50.0200 -103.2840 303° West 418 481 34,000  Level FlightAware ADS-B
Sat 04:49:35 AM 50.0510 -103.3590 303° West 418 481 34,000  Level FlightAware ADS-B
Sat 04:50:28 AM 50.1060 -103.4940 302° West 418 481 34,000  Level FlightAware ADS-B
Sat 04:51:06 AM 50.1500 -103.5980 303° West 415 478 34,000  Level FlightAware ADS-B
Sat 04:51:43 AM 50.1900 -103.6980 302° West 415 478 34,000  Level FlightAware ADS-B
Sat 04:52:24 AM 50.2300 -103.7960 303° West 415 478 34,000  Level FlightAware ADS-B
Sat 04:53:04 AM 50.2710 -103.8960 303° West 415 478 34,000  Level FlightAware ADS-B
Sat 04:53:36 AM 50.3060 -103.9820 303° West 415 478 34,000  Level FlightAware ADS-B
Sat 04:54:11 AM 50.3380 -104.0600 303° West 415 478 34,000  Level FlightAware ADS-B
Sat 04:54:50 AM 50.3810 -104.1670 302° West 416 479 34,000  Level FlightAware ADS-B
Sat 04:55:20 AM 50.4100 -104.2400 302° West 415 478 34,000  Level FlightAware ADS-B
Sat 04:56:05 AM 50.4570 -104.3570 302° West 415 478 34,000  Level FlightAware ADS-B
Sat 04:56:35 AM 50.4870 -104.4320 302° West 415 478 34,000  Level FlightAware ADS-B
Sat 04:57:17 AM 50.5290 -104.5390 302° West 415 478 34,000  Level FlightAware ADS-B
Sat 04:57:50 AM 50.5610 -104.6200 302° West 415 478 34,000  Level FlightAware ADS-B
Sat 04:58:20 AM 50.5920 -104.6980 302° West 415 478 34,000  Level FlightAware ADS-B
Sat 04:59:01 AM 50.6340 -104.8040 302° West 417 480 34,000  Level FlightAware ADS-B
Sat 04:59:41 AM 50.6750 -104.9070 302° West 419 482 34,000  Level FlightAware ADS-B
Sat 05:00:17 AM 50.7150 -104.9990 305° West 418 481 34,000  Level FlightAware ADS-B
Sat 05:00:50 AM 50.7490 -105.0790 304° West 417 480 34,000  Level FlightAware ADS-B
Sat 05:01:22 AM 50.7860 -105.1650 304° West 420 483 34,000  Level FlightAware ADS-B
Sat 05:02:02 AM 50.8290 -105.2630 305° West 424 488 34,000  Level FlightAware ADS-B
Sat 05:02:35 AM 50.8640 -105.3450 304° West 425 489 34,000  Level FlightAware ADS-B
Sat 05:03:13 AM 50.9080 -105.4480 304° West 426 490 34,000  Level FlightAware ADS-B
Sat 05:03:46 AM 50.9450 -105.5360 304° West 428 493 34,000  Level FlightAware ADS-B
Sat 05:04:20 AM 50.9800 -105.6180 304° West 428 493 34,000  Level FlightAware ADS-B
Sat 05:04:59 AM 51.0290 -105.7340 304° West 430 495 34,000  Level FlightAware ADS-B
Sat 05:05:41 AM 51.0690 -105.8290 304° West 431 496 34,000  Level FlightAware ADS-B
Sat 05:06:13 AM 51.1050 -105.9130 304° West 429 494 34,000  Level FlightAware ADS-B
Sat 05:06:52 AM 51.1470 -106.0150 303° West 428 493 34,000  Level FlightAware ADS-B
Sat 05:07:41 AM 51.2020 -106.1470 304° West 424 488 34,000  Level FlightAware ADS-B
Sat 05:08:22 AM 51.2450 -106.2500 304° West 421 484 34,000  Level FlightAware ADS-B
Sat 05:08:55 AM 51.2840 -106.3440 304° West 417 480 34,000  Level FlightAware ADS-B
Sat 05:09:27 AM 51.3150 -106.4210 303° West 416 479 34,000  Level FlightAware ADS-B
Sat 05:10:09 AM 51.3580 -106.5250 304° West 414 476 34,000  Level FlightAware ADS-B
Sat 05:11:24 AM 51.4250 -106.6880 303° West 413 475 34,000  Level FlightAware ADS-B
Sat 05:12:02 AM 51.4580 -106.7710 303° West 413 475 34,000  Level FlightAware ADS-B
Sat 05:12:39 AM 51.4910 -106.8520 303° West 413 475 34,000  Level FlightAware ADS-B
Sat 05:13:13 AM 51.5550 -107.0110 303° West 414 476 34,000  Level FlightAware ADS-B
Sat 05:13:45 AM 51.5880 -107.0930 303° West 416 479 34,000  Level FlightAware ADS-B
Sat 05:14:35 AM 51.6360 -107.2130 303° West 418 481 34,000  Level FlightAware ADS-B
Sat 05:15:11 AM 51.6670 -107.2940 302° West 418 481 34,000  Level FlightAware ADS-B
Sat 05:15:47 AM 51.7150 -107.4110 304° West 428 493 34,000  Level FlightAware ADS-B
Sat 05:16:17 AM 51.7470 -107.4920 303° West 432 497 34,000  Level FlightAware ADS-B
Sat 05:16:55 AM 51.7810 -107.5800 302° West 432 497 34,000  Level FlightAware ADS-B
Sat 05:17:32 AM 51.8140 -107.6660 302° West 432 497 34,000  Level FlightAware ADS-B
Sat 05:18:09 AM 51.8480 -107.7530 302° West 432 497 34,000  Level FlightAware ADS-B
Sat 05:18:49 AM 51.9140 -107.9190 303° West 452 520 34,000  Level FlightAware ADS-B
Sat 05:19:40 AM 51.9660 -108.0550 302° West 454 522 34,000  Level FlightAware ADS-B
Sat 05:20:16 AM 52.0010 -108.1430 303° West 454 522 34,000  Level FlightAware ADS-B
Sat 05:20:52 AM 52.0530 -108.2800 302° West 462 532 34,000  Level FlightAware ADS-B
Sat 05:21:45 AM 52.1070 -108.4230 302° West 462 532 34,000  Level FlightAware ADS-B
Sat 05:22:16 AM 52.1460 -108.5250 302° West 461 531 34,000  Level FlightAware ADS-B
Sat 05:22:52 AM 52.1870 -108.6330 302° West 464 534 34,000  Level FlightAware ADS-B
Sat 05:23:26 AM 52.2250 -108.7350 301° West 465 535 34,000  Level FlightAware ADS-B
Sat 05:24:19 AM 52.2790 -108.8800 301° West 467 537 34,000  Level FlightAware ADS-B
Sat 05:24:56 AM 52.3140 -108.9750 301° West 467 537 34,000  Level FlightAware ADS-B
Sat 05:25:33 AM 52.3490 -109.0700 301° West 467 537 34,000  Level FlightAware ADS-B
Sat 05:26:11 AM 52.3850 -109.1680 301° West 467 537 34,000  Level FlightAware ADS-B
Sat 05:26:49 AM 52.4210 -109.2660 301° West 467 537 34,000  Level FlightAware ADS-B
Sat 05:27:28 AM 52.4580 -109.3670 301° West 467 537 34,000  Level FlightAware ADS-B
Sat 05:28:05 AM 52.4930 -109.4630 301° West 467 537 34,000  Level FlightAware ADS-B
Sat 05:28:37 AM 52.5750 -109.6820 302° West 476 548 34,000  Level FlightAware ADS-B
Sat 05:29:14 AM 52.6160 -109.7970 300° West 476 548 34,000  Level FlightAware ADS-B
Sat 05:29:51 AM 52.6570 -109.9110 301° West 477 549 34,000  Level FlightAware ADS-B
Sat 05:30:48 AM 52.7160 -110.0780 300° West 478 550 34,000  Level FlightAware ADS-B
Sat 05:31:21 AM 52.7590 -110.1970 301° West 484 557 34,000  Level FlightAware ADS-B
Sat 05:31:56 AM 52.7980 -110.3080 300° West 485 558 34,000  Level FlightAware ADS-B
Sat 05:32:31 AM 52.8380 -110.4220 300° West 488 562 34,000  Level FlightAware ADS-B
Sat 05:33:06 AM 52.8770 -110.5340 300° West 487 560 34,000  Level FlightAware ADS-B
Sat 05:33:51 AM 52.9280 -110.6780 300° West 472 543 34,000  Level FlightAware ADS-B
Sat 05:34:23 AM 52.9600 -110.7720 300° West 470 541 34,000  Level FlightAware ADS-B
Sat 05:34:59 AM 53.0050 -110.8860 303° West 465 535 34,000  Level FlightAware ADS-B
Sat 05:35:34 AM 53.0490 -110.9880 306° West 468 539 34,000 429 Level FlightAware ADS-B
Sat 05:36:09 AM 53.0930 -111.0900 306° West 464 534 34,500 1,629 Climbing FlightAware ADS-B
Sat 05:36:44 AM 53.1360 -111.1890 306° West 442 509 35,900 1,286 Climbing FlightAware ADS-B
Sat 05:37:19 AM 53.1780 -111.2850 306° West 444 511 36,000 80 Climbing FlightAware ADS-B
Sat 05:37:59 AM 53.2260 -111.3980 305° West 450 518 36,000  Level FlightAware ADS-B
Sat 05:38:40 AM 53.2750 -111.5110 306° West 448 516 36,000  Level FlightAware ADS-B
Sat 05:39:04 AM 53.3050 -111.5820 305° West 448 516 36,000  Level FlightAware ADS-B
Sat 05:39:39 AM 53.3480 -111.6820 306° West 449 517 36,000  Level FlightAware ADS-B
Sat 05:40:17 AM 53.3900 -111.7820 305° West 452 520 36,000  Level FlightAware ADS-B
Sat 05:40:49 AM 53.4300 -111.8780 305° West 450 518 36,000  Level FlightAware ADS-B
Sat 05:41:24 AM 53.4730 -111.9790 306° West 449 517 36,000  Level FlightAware ADS-B
Sat 05:42:05 AM 53.5210 -112.0930 305° West 451 519 36,000  Level FlightAware ADS-B
Sat 05:42:44 AM 53.5680 -112.2070 305° West 451 519 36,000  Level FlightAware ADS-B
Sat 05:43:14 AM 53.6040 -112.2930 305° West 451 519 36,000  Level FlightAware ADS-B
Sat 05:43:54 AM 53.6520 -112.4110 304° West 451 519 36,000  Level FlightAware ADS-B
Sat 05:44:24 AM 53.6880 -112.4970 305° West 451 519 36,000  Level FlightAware ADS-B
Sat 05:45:04 AM 53.7360 -112.6140 305° West 452 520 36,000  Level FlightAware ADS-B
Sat 05:45:34 AM 53.7710 -112.7000 305° West 453 521 36,000  Level FlightAware ADS-B
Sat 05:46:09 AM 53.8130 -112.8030 305° West 454 522 36,000  Level FlightAware ADS-B
Sat 05:46:49 AM 53.8600 -112.9190 305° West 456 525 36,000  Level FlightAware ADS-B
Sat 05:47:19 AM 53.8940 -113.0050 304° West 457 526 36,000  Level FlightAware ADS-B
Sat 05:47:54 AM 53.9370 -113.1110 305° West 458 527 36,000  Level FlightAware ADS-B
Sat 05:48:34 AM 53.9840 -113.2290 304° West 460 529 36,000  Level FlightAware ADS-B
Sat 05:49:04 AM 54.0190 -113.3170 304° West 461 531 36,000  Level FlightAware ADS-B
Sat 05:49:44 AM 54.0680 -113.4390 304° West 461 531 36,000  Level FlightAware ADS-B
Sat 05:50:14 AM 54.1040 -113.5300 304° West 461 531 36,000  Level FlightAware ADS-B
Sat 05:50:49 AM 54.1450 -113.6360 303° West 462 532 36,000  Level FlightAware ADS-B
Sat 05:51:29 AM 54.1920 -113.7560 304° West 463 533 36,000  Level FlightAware ADS-B
Sat 05:52:00 AM 54.2280 -113.8470 304° West 463 533 36,000  Level FlightAware ADS-B
Sat 05:52:39 AM 54.2750 -113.9700 303° West 464 534 36,000  Level FlightAware ADS-B
Sat 05:53:09 AM 54.3110 -114.0620 304° West 464 534 36,000  Level FlightAware ADS-B
Sat 05:53:45 AM 54.3510 -114.1660 303° West 465 535 36,000  Level FlightAware ADS-B
Sat 05:54:20 AM 54.3930 -114.2750 304° West 465 535 36,000  Level FlightAware ADS-B
Sat 05:55:05 AM 54.4430 -114.4060 303° West 464 534 36,000  Level FlightAware ADS-B
Sat 05:55:40 AM 54.4880 -114.5250 303° West 463 533 36,000  Level FlightAware ADS-B
Sat 05:56:11 AM 54.5220 -114.6140 303° West 462 532 36,000  Level FlightAware ADS-B
Sat 05:56:45 AM 54.5610 -114.7190 303° West 462 532 36,000  Level FlightAware ADS-B
Sat 05:57:24 AM 54.6050 -114.8360 303° West 460 529 36,000  Level FlightAware ADS-B
Sat 05:57:57 AM 54.6450 -114.9430 303° West 461 531 36,000  Level FlightAware ADS-B
Sat 05:58:32 AM 54.6840 -115.0470 303° West 460 529 36,000  Level FlightAware ADS-B
Sat 05:59:15 AM 54.7270 -115.1640 303° West 459 528 36,000  Level FlightAware ADS-B
Sat 05:59:59 AM 54.7840 -115.3180 303° West 457 526 36,000  Level FlightAware ADS-B
Sat 06:00:32 AM 54.8230 -115.4250 302° West 454 522 36,000  Level FlightAware ADS-B
Sat 06:01:07 AM 54.8590 -115.5240 302° West 452 520 36,000  Level FlightAware ADS-B
Sat 06:01:42 AM 54.9000 -115.6380 302° West 449 517 36,000  Level FlightAware ADS-B
Sat 06:02:18 AM 54.9350 -115.7330 303° West 443 510 36,000  Level FlightAware ADS-B
Sat 06:03:01 AM 54.9810 -115.8630 302° West 442 509 36,000  Level FlightAware ADS-B
Sat 06:03:42 AM 55.0310 -116.0030 302° West 443 510 36,000  Level FlightAware ADS-B
Sat 06:04:18 AM 55.0690 -116.1090 302° West 444 511 36,000  Level FlightAware ADS-B
Sat 06:04:52 AM 55.1060 -116.2140 302° West 444 511 36,000  Level FlightAware ADS-B
Sat 06:05:32 AM 55.1510 -116.3420 302° West 445 512 36,000  Level FlightAware ADS-B
Sat 06:06:07 AM 55.1880 -116.4470 302° West 444 511 36,000  Level FlightAware ADS-B
Sat 06:06:53 AM 55.2350 -116.5810 302° West 443 510 36,000  Level FlightAware ADS-B
Sat 06:07:32 AM 55.2690 -116.6840 300° West 443 510 36,000  Level FlightAware ADS-B
Sat 06:08:07 AM 55.3170 -116.8160 303° West 448 516 36,000  Level FlightAware ADS-B
Sat 06:08:58 AM 55.3660 -116.9610 301° West 444 511 36,000  Level FlightAware ADS-B
Sat 06:09:35 AM 55.4000 -117.0580 302° West 444 511 36,000  Level FlightAware ADS-B
Sat 06:10:11 AM 55.4320 -117.1530 301° West 444 511 36,000  Level FlightAware ADS-B
Sat 06:10:49 AM 55.4660 -117.2540 301° West 444 511 36,000  Level FlightAware ADS-B
Sat 06:11:22 AM 55.4960 -117.3410 301° West 444 511 36,000  Level FlightAware ADS-B
Sat 06:11:56 AM 55.5260 -117.4310 301° West 444 511 36,000  Level FlightAware ADS-B
Sat 06:12:37 AM 55.5950 -117.6370 301° West 36,000  Level FlightAware ADS-B
Sat 06:13:37 AM 55.6550 -117.8180 300° West 458 527 36,000  Level FlightAware ADS-B
Sat 06:14:13 AM 55.6880 -117.9180 300° West 436 502 36,000  Level FlightAware ADS-B
Sat 06:14:50 AM 55.7200 -118.0160 300° West 436 502 36,000  Level FlightAware ADS-B
Sat 06:15:26 AM 55.7500 -118.1110 299° West 436 502 36,000  Level FlightAware ADS-B
Sat 06:16:04 AM 55.7830 -118.2110 300° West 436 502 36,000  Level FlightAware ADS-B
Sat 06:16:42 AM 55.8160 -118.3120 300° West 436 502 36,000  Level FlightAware ADS-B
Sat 06:17:18 AM 55.8460 -118.4070 299° West 436 502 36,000  Level FlightAware ADS-B
Sat 06:17:55 AM 55.8780 -118.5050 300° West 436 502 36,000  Level FlightAware ADS-B
Sat 06:18:34 AM 55.9120 -118.6080 301° West 436 502 36,000  Level FlightAware ADS-B
Sat 06:19:10 AM 55.9420 -118.7030 299° West 436 502 36,000  Level FlightAware ADS-B
Sat 06:19:46 AM 55.9730 -118.7990 300° West 436 502 36,000  Level FlightAware ADS-B
Sat 06:20:25 AM 56.0070 -118.9030 300° West 436 502 36,000  Level FlightAware ADS-B
Sat 06:21:02 AM 56.0380 -119.0010 300° West 436 502 36,000  Level FlightAware ADS-B
Sat 06:21:40 AM 56.0710 -119.1020 300° West 436 502 36,000  Level FlightAware ADS-B
Sat 06:22:16 AM 56.1020 -119.1980 300° West 436 502 36,000  Level FlightAware ADS-B
Sat 06:22:50 AM 56.1310 -119.2880 300° West 436 502 36,000  Level FlightAware ADS-B
Sat 06:23:26 AM 56.1620 -119.3840 300° West 436 502 36,000  Level FlightAware ADS-B
Sat 06:24:32 AM 56.2833 -119.9000 300° West 430 495 36,000  Level Edmonton Center
Sat 06:25:32 AM 56.3333 -120.1167 293° West 430 495 36,000  Level Edmonton Center
Sat 06:26:32 AM 56.4000 -120.3000 303° West 430 495 36,000  Level Edmonton Center
Sat 06:27:32 AM 56.4500 -120.4667 299° West 430 495 36,000  Level Edmonton Center
Sat 06:28:32 AM 56.5000 -120.6833 293° West 430 495 36,000  Level Edmonton Center
Sat 06:29:32 AM 56.5667 -120.8667 303° West 440 506 36,000  Level Edmonton Center
Sat 06:30:32 AM 56.6167 -121.0833 293° West 440 506 36,000  Level Edmonton Center
Sat 06:31:32 AM 56.6667 -121.2667 296° West 430 495 36,000  Level Edmonton Center
Sat 06:32:32 AM 56.7333 -121.4833 299° West 440 506 36,000  Level Edmonton Center
Sat 06:33:32 AM 56.7833 -121.6667 297° West 440 506 36,000  Level Edmonton Center
Sat 06:34:32 AM 56.8500 -121.8833 299° West 440 506 36,000  Level Edmonton Center
Sat 06:35:32 AM 56.9167 -122.0667 304° West 440 506 36,000  Level Edmonton Center
Sat 06:36:32 AM 56.9500 -122.2833 286° West 440 506 36,000  Level Edmonton Center
Sat 06:37:32 AM 57.0167 -122.4833 302° West 440 506 36,000  Level Edmonton Center
Sat 06:38:32 AM 57.0667 -122.6833 295° West 440 506 36,000  Level Edmonton Center
Sat 06:39:32 AM 57.1167 -122.8833 295° West 440 506 36,000  Level Edmonton Center
Sat 06:40:32 AM 57.1833 -123.1000 300° West 440 506 36,000  Level Edmonton Center
Sat 06:41:32 AM 57.2333 -123.2833 297° West 440 506 36,000  Level Edmonton Center
Sat 06:42:32 AM 57.2833 -123.5167 292° West 440 506 36,000  Level Edmonton Center
Sat 06:43:32 AM 57.3333 -123.7000 297° West 440 506 36,000  Level Edmonton Center
Sat 06:44:32 AM 57.3833 -123.9167 293° West 440 506 36,000  Level Edmonton Center
Sat 06:45:32 AM 57.4333 -124.1167 295° West 440 506 36,000  Level Edmonton Center
Sat 06:46:32 AM 57.5000 -124.3333 300° West 440 506 36,000  Level Edmonton Center
Sat 06:47:32 AM 57.5500 -124.5333 295° West 450 518 36,000  Level Edmonton Center
Sat 06:48:32 AM 57.6000 -124.7667 292° West 450 518 36,000  Level Edmonton Center
Sat 06:49:32 AM 57.6500 -124.9833 293° West 450 518 36,000  Level Edmonton Center
Sat 06:50:32 AM 57.7167 -125.2000 300° West 450 518 36,000  Level Edmonton Center
Sat 06:52:00 AM 57.7991 -125.4939 298° West  Level FlightAware Approximate
Sat 06:59:00 AM 58.1626 -126.9324 293° West  Level FlightAware Approximate
Sat 07:00:00 AM 58.2087 -127.1441 293° West  Level FlightAware Approximate
Sat 07:01:00 AM 58.2544 -127.3564 292° West  Level FlightAware Approximate
Sat 07:02:00 AM 58.2998 -127.5692 292° West  Level FlightAware Approximate
Sat 07:03:00 AM 58.3448 -127.7826 292° West  Level FlightAware Approximate
Sat 07:04:00 AM 58.3896 -127.9964 292° West  Level FlightAware Approximate
Sat 07:05:00 AM 58.4348 -128.2103 292° West  Level FlightAware Approximate
Sat 07:06:00 AM 58.4795 -128.4247 292° West  Level FlightAware Approximate
Sat 07:07:00 AM 58.5239 -128.6396 292° West  Level FlightAware Approximate
Sat 07:08:00 AM 58.5680 -128.8551 291° West  Level FlightAware Approximate
Sat 07:09:00 AM 58.6117 -129.0711 291° West  Level FlightAware Approximate
Sat 07:10:00 AM 58.6550 -129.2877 291° West  Level FlightAware Approximate
Sat 07:11:00 AM 58.6980 -129.5048 291° West  Level FlightAware Approximate
Sat 07:12:00 AM 58.7397 -129.7230 290° West  Level FlightAware Approximate
Sat 07:13:00 AM 58.7804 -129.9423 290° West  Level FlightAware Approximate
Sat 07:14:00 AM 58.8207 -130.1620 290° West  Level FlightAware Approximate
Sat 07:15:00 AM 58.8607 -130.3831 289° West  Level FlightAware Approximate
Sat 07:16:00 AM 58.9004 -130.6046 289° West  Level FlightAware Approximate
Sat 07:17:00 AM 58.9397 -130.8266 289° West  Level FlightAware Approximate
Sat 07:18:00 AM 58.9786 -131.0491 289° West  Level FlightAware Approximate
Sat 07:19:00 AM 59.0172 -131.2721 289° West  Level FlightAware Approximate
Sat 07:20:00 AM 59.0554 -131.4961 288° West  Level FlightAware Approximate
Sat 07:21:00 AM 59.0932 -131.7205 288° West  Level FlightAware Approximate
Sat 07:22:00 AM 59.1307 -131.9455 288° West  Level FlightAware Approximate
Sat 07:23:00 AM 59.1677 -132.1709 288° West  Level FlightAware Approximate
Sat 07:24:00 AM 59.2044 -132.3969 288° West  Level FlightAware Approximate
Sat 07:25:00 AM 59.2407 -132.6233 287° West  Level FlightAware Approximate
Sat 07:26:00 AM 59.2766 -132.8502 287° West  Level FlightAware Approximate
Sat 07:27:00 AM 59.3125 -133.0775 288° West  Level FlightAware Approximate
Sat 07:28:00 AM 59.3487 -133.3047 287° West  Level FlightAware Approximate
Sat 07:29:00 AM 59.3845 -133.5324 287° West  Level FlightAware Approximate
Sat 07:29:57 AM 59.4500 -133.9833 286° West 470 541 36,000  Level Anchorage Center
Sat 07:30:00 AM 59.4199 -133.7605 287° West  Level FlightAware Approximate
Sat 07:30:57 AM 59.4833 -134.2333 285° West 470 541 36,000  Level Anchorage Center
Sat 07:31:00 AM 59.4549 -133.9891 287° West  Level FlightAware Approximate
Sat 07:31:57 AM 59.5333 -134.4667 293° West 450 518 36,000  Level Anchorage Center
Sat 07:32:00 AM 59.4895 -134.2182 287° West  Level FlightAware Approximate
Sat 07:32:57 AM 59.5667 -134.7167 285° West 460 529 36,000  Level Anchorage Center
Sat 07:33:00 AM 59.5237 -134.4478 286° West  Level FlightAware Approximate
Sat 07:33:57 AM 59.6000 -134.9333 287° West 460 529 36,000  Level Anchorage Center
Sat 07:34:00 AM 59.5575 -134.6778 286° West  Level FlightAware Approximate
Sat 07:34:58 AM 59.6333 -135.1833 285° West 450 518 36,000  Level Anchorage Center
Sat 07:35:00 AM 59.5909 -134.9082 286° West  Level FlightAware Approximate
Sat 07:35:58 AM 59.6667 -135.4167 286° West 460 529 36,000  Level Anchorage Center
Sat 07:36:58 AM 59.7000 -135.6667 285° West 460 529 36,000  Level Anchorage Center
Sat 07:37:58 AM 59.7333 -135.9167 285° West 460 529 36,000  Level Anchorage Center
Sat 07:38:58 AM 59.7667 -136.1500 286° West 460 529 36,000  Level Anchorage Center
Sat 07:39:58 AM 59.8000 -136.4000 285° West 450 518 36,000  Level Anchorage Center
Sat 07:40:58 AM 59.8167 -136.6500 278° West 460 529 36,000  Level Anchorage Center
Sat 07:41:59 AM 59.8500 -136.9000 285° West 460 529 36,000  Level Anchorage Center
Sat 07:42:59 AM 59.8833 -137.1333 286° West 460 529 36,000  Level Anchorage Center
Sat 07:43:59 AM 59.9167 -137.3833 285° West 460 529 36,000  Level Anchorage Center
Sat 07:44:59 AM 59.9500 -137.6333 285° West 450 518 36,000  Level Anchorage Center
Sat 07:45:59 AM 59.9667 -137.8667 278° West 450 518 36,000  Level Anchorage Center
Sat 07:46:59 AM 60.0000 -138.1167 285° West 450 518 36,000  Level Anchorage Center
Sat 07:47:59 AM 60.0333 -138.3667 285° West 450 518 36,000  Level Anchorage Center
Sat 07:49:00 AM 60.0667 -138.6000 286° West 460 529 36,000  Level Anchorage Center
Sat 07:50:00 AM 60.0833 -138.8500 278° West 460 529 36,000  Level Anchorage Center
Sat 07:51:00 AM 60.1167 -139.1000 285° West 450 518 36,000  Level Anchorage Center
Sat 07:52:00 AM 60.1333 -139.3500 278° West 450 518 36,000  Level Anchorage Center
Sat 07:53:00 AM 60.1500 -139.6000 278° West 450 518 36,000  Level Anchorage Center
Sat 07:54:00 AM 60.1667 -139.8333 278° West 450 518 36,000  Level Anchorage Center
Sat 07:55:00 AM 60.1833 -140.0833 278° West 440 506 36,000  Level Anchorage Center
Sat 07:56:00 AM 60.2000 -140.3333 278° West 450 518 36,000  Level Anchorage Center
Sat 07:57:00 AM 60.2167 -140.5833 278° West 450 518 36,000  Level Anchorage Center
Sat 07:58:00 AM 60.2333 -140.8333 278° West 440 506 36,000  Level Anchorage Center
Sat 07:59:00 AM 60.2500 -141.0667 278° West 440 506 36,000  Level Anchorage Center
Sat 08:00:00 AM 60.2667 -141.3167 278° West 450 518 36,000  Level Anchorage Center
Sat 08:01:00 AM 60.2833 -141.5667 278° West 440 506 36,000  Level Anchorage Center
Sat 08:02:01 AM 60.3000 -141.8167 278° West 440 506 36,000  Level Anchorage Center
Sat 08:03:01 AM 60.3000 -142.0667 270° West 450 518 36,000  Level Anchorage Center
Sat 08:04:01 AM 60.3167 -142.3167 278° West 440 506 36,000  Level Anchorage Center
Sat 08:05:01 AM 60.3333 -142.5667 278° West 440 506 36,000  Level Anchorage Center
Sat 08:06:01 AM 60.3500 -142.8000 278° West 440 506 36,000  Level Anchorage Center
Sat 08:07:01 AM 60.3500 -143.0500 270° West 440 506 36,000  Level Anchorage Center
Sat 08:08:01 AM 60.3667 -143.3333 277° West 440 506 36,000  Level Anchorage Center
Sat 08:09:02 AM 60.3833 -143.5667 278° West 430 495 36,000  Level Anchorage Center
Sat 08:10:02 AM 60.3833 -143.8167 270° West 440 506 36,000  Level Anchorage Center
Sat 08:11:02 AM 60.4000 -144.0667 278° West 440 506 36,000  Level Anchorage Center
Sat 08:12:02 AM 60.4167 -144.3167 278° West 440 506 36,000  Level Anchorage Center
Sat 08:13:02 AM 60.4167 -144.5667 270° West 440 506 36,000  Level Anchorage Center
Sat 08:15:02 AM 60.4333 -145.0500 274° West 440 506 36,000  Level Anchorage Center
Sat 08:16:03 AM 60.4333 -145.3000 270° West 430 495 36,000  Level Anchorage Center
Sat 08:17:03 AM 60.4500 -145.5500 278° West 440 506 36,000  Level Anchorage Center
Sat 08:22:54 AM 60.5480 -147.0090 278° West 429 494 36,000  Level FlightAware ADS-B
Sat 08:23:34 AM 60.5730 -147.1600 289° West 426 490 36,000  Level FlightAware ADS-B
Sat 08:24:11 AM 60.5960 -147.3030 288° West 422 486 36,000  Level FlightAware ADS-B
Sat 08:24:48 AM 60.6180 -147.4410 288° West 418 481 36,000  Level FlightAware ADS-B
Sat 08:25:19 AM 60.6360 -147.5580 287° West 413 475 36,000 -88 Level FlightAware ADS-B
Sat 08:25:56 AM 60.6580 -147.6930 288° West 409 471 35,900 -973 Descending FlightAware ADS-B
Sat 08:26:33 AM 60.6780 -147.8250 287° West 399 459 34,800 -2,912 Descending FlightAware ADS-B
Sat 08:27:04 AM 60.6960 -147.9410 288° West 415 478 32,600 -4,174 Descending FlightAware ADS-B
Sat 08:27:42 AM 60.7180 -148.0850 287° West 431 496 30,000 -4,200 Descending FlightAware ADS-B
Sat 08:28:14 AM 60.7370 -148.2110 287° West 443 510 27,700 -3,652 Descending FlightAware ADS-B
Sat 08:28:51 AM 60.7590 -148.3550 287° West 439 505 25,800 -2,870 Descending FlightAware ADS-B
Sat 08:29:23 AM 60.7780 -148.4830 287° West 426 490 24,400 -2,535 Descending FlightAware ADS-B
Sat 08:30:02 AM 60.8000 -148.6290 287° West 408 470 22,800 -3,123 Descending FlightAware ADS-B
Sat 08:30:36 AM 60.8180 -148.7520 287° West 394 453 20,600 -3,364 Descending FlightAware ADS-B
Sat 08:31:08 AM 60.8350 -148.8680 287° West 390 449 19,100 -2,829 Descending FlightAware ADS-B
Sat 08:31:46 AM 60.8540 -149.0000 287° West 387 445 17,300 -2,757 Descending FlightAware ADS-B
Sat 08:32:22 AM 60.8720 -149.1250 287° West 378 435 15,700 -2,704 Descending FlightAware ADS-B
Sat 08:32:57 AM 60.8900 -149.2400 288° West 368 423 14,100 -2,818 Descending FlightAware ADS-B
Sat 08:33:28 AM 60.9110 -149.3420 293° West 367 422 12,600 -2,667 Descending FlightAware ADS-B
Sat 08:34:00 AM 60.9320 -149.4440 293° West 365 420 11,300 -1,667 Descending FlightAware ADS-B
Sat 08:34:40 AM 60.9580 -149.5670 294° West 331 381 10,600 -783 Descending FlightAware ADS-B
Sat 08:35:09 AM 60.9730 -149.6400 293° West 307 353 10,400 -429 Descending FlightAware ADS-B
Sat 08:35:50 AM 60.9970 -149.7470 295° West 260 299 10,100 -762 Descending FlightAware ADS-B
Sat 08:36:12 AM 61.0070 -149.7950 293° West 247 284 9,600 -1,224 Descending FlightAware ADS-B
Sat 08:36:39 AM 61.0180 -149.8440 295° West 251 289 9,100 -1,227 Descending FlightAware ADS-B
Sat 08:36:56 AM 61.0270 -149.8910 292° West 248 285 8,700 -1,636 Descending FlightAware ADS-B
Sat 08:37:12 AM 61.0320 -149.9280 286° West 245 282 8,200 -2,000 Descending FlightAware ADS-B
Sat 08:37:32 AM 61.0380 -149.9710 286° West 243 280 7,500 -2,100 Descending FlightAware ADS-B
Sat 08:37:52 AM 61.0450 -150.0170 287° West 244 281 6,800 -2,318 Descending FlightAware ADS-B
Sat 08:38:16 AM 61.0530 -150.0700 287° West 245 282 5,800 -2,267 Descending FlightAware ADS-B
Sat 08:38:37 AM 61.0590 -150.1140 286° West 247 284 5,100 -2,000 Descending FlightAware ADS-B
Sat 08:38:52 AM 61.0640 -150.1500 286° West 245 282 4,600 -2,000 Descending FlightAware ADS-B
Sat 08:39:16 AM 61.0720 -150.2020 288° West 242 278 3,800 -2,195 Descending FlightAware ADS-B
Sat 08:39:33 AM 61.0780 -150.2390 289° West 243 280 3,100 -2,143 Descending FlightAware ADS-B
Sat 08:39:58 AM 61.0860 -150.2960 286° West 239 275 2,300 -1,333 Descending FlightAware ADS-B
Sat 08:40:18 AM 61.0920 -150.3390 286° West 226 260 2,100 -387 Descending FlightAware ADS-B
Sat 08:40:29 AM 61.0960 -150.3580 294° West 222 255 2,100 -429 Level FlightAware ADS-B
Sat 08:40:32 AM 61.0990 -150.3660 308° West 221 254 2,000 -462 Descending FlightAware ADS-B
Sat 08:40:42 AM 61.1060 -150.3780 320° Northwest 217 250 2,000  Level FlightAware ADS-B
Sat 08:40:52 AM 61.1150 -150.3830 345° North 209 241 2,000  Level FlightAware ADS-B
Sat 08:40:56 AM 61.1190 -150.3840 353° North 204 235 2,000  Level FlightAware ADS-B
Sat 08:41:22 AM 61.1420 -150.3740 12° North 188 216 2,000  Level FlightAware ADS-B
Sat 08:41:34 AM 61.1490 -150.3590 46° Northeast 186 214 2,000  Level FlightAware ADS-B
Sat 08:41:54 AM 61.1560 -150.3290 64° Northeast 184 212 2,000  Level FlightAware ADS-B
Sat 08:42:14 AM 61.1640 -150.3010 59° Northeast 166 191 2,000  Level FlightAware ADS-B
Sat 08:42:22 AM 61.1670 -150.2860 67° East 164 189 2,000  Level FlightAware ADS-B
Sat 08:42:30 AM 61.1670 -150.2740 90° East 160 184 2,000  Level FlightAware ADS-B
Sat 08:42:42 AM 61.1670 -150.2570 90° East 152 175 2,000  Level FlightAware ADS-B
Sat 08:43:02 AM 61.1670 -150.2280 90° East 150 173 2,000  Level FlightAware ADS-B
Sat 08:43:24 AM 61.1670 -150.1970 90° East 149 171 2,000 -429 Level FlightAware ADS-B
Sat 08:43:44 AM 61.1680 -150.1680 86° East 151 174 1,700 -1,235 Descending FlightAware ADS-B
Sat 08:43:58 AM 61.1680 -150.1480 90° East 149 171 1,300 -1,350 Descending FlightAware ADS-B
Sat 08:44:24 AM 61.1680 -150.1110 90° East 146 168 800 -878 Descending FlightAware ADS-B
Sat 08:44:39 AM 61.1680 -150.0910 90° East 147 169 700 -667 Descending FlightAware ADS-B
Sat 08:45:00 AM 61.1680 -150.0600 90° East 142 163 400 -857 Descending FlightAware ADS-B
Sat 08:45:27 AM 61.1680 -150.0270 90° East 115 132 -889 Descending FlightAware ADS-B

Login

Don't have an account? Register now (free) for customized features, flight alerts, and more!